Flight Track Log - Related Links

Times and Time Zones

All times are in EDT time to prevent confusion due to time zone crossing. See the DKT1596 flight status page for this flight to view local times or setup timezone preferences in your user account.

Time Position Orientation Groundspeed Altitude Reporting Facility
EDT Latitude Longitude Course Direction KTS MPH feet Rate Location/Type
08:43AM 43.5775 -96.8356 315° West 178 205 4,900  Level Minneapolis Center
08:44AM 43.6158 -96.8878 315° West 188 216 6,300 1,512 Climbing Minneapolis Center
08:45AM 43.6519 -96.9378 315° West 188 216 8,000 1,475 Climbing Minneapolis Center
08:46AM 43.6881 -96.9853 316° Northwest 187 215 9,300 1,230 Climbing Minneapolis Center
08:47AM 43.7231 -97.0353 314° West 186 214 10,500 1,131 Climbing Minneapolis Center
08:48AM 43.7592 -97.0817 317° Northwest 182 209 11,600 1,033 Climbing Minneapolis Center
08:49AM 43.7972 -97.1292 318° Northwest 182 209 12,600 927 Climbing Minneapolis Center
08:50AM 43.8336 -97.1769 317° Northwest 182 209 13,500 878 Climbing Minneapolis Center
08:51AM 43.8697 -97.2267 315° West 182 209 14,400 836 Climbing Minneapolis Center
08:52AM 43.9044 -97.2778 313° West 182 209 15,200 738 Climbing Minneapolis Center
08:53AM 43.9481 -97.3375 315° West 182 209 15,900 443 Climbing Minneapolis Center
08:54AM 43.9839 -97.3931 312° West 188 216 16,100 49 Climbing Minneapolis Center
08:55AM 44.0256 -97.4525 314° West 206 237 16,000 -49 Descending Minneapolis Center
08:56AM 44.0725 -97.5089 319° Northwest 217 250 16,000  Level Minneapolis Center
08:57AM 44.1242 -97.5617 324° Northwest 224 258 16,000  Level Minneapolis Center
08:58AM 44.1739 -97.6178 321° Northwest 226 260 16,000  Level Minneapolis Center
08:59AM 44.2194 -97.6800 316° Northwest 228 262 16,000  Level Minneapolis Center
09:00AM 44.2664 -97.7383 318° Northwest 228 262 16,000 49 Level Minneapolis Center
09:01AM 44.3136 -97.7986 318° Northwest 228 262 16,100 -49 Climbing Minneapolis Center
09:02AM 44.3664 -97.8525 324° Northwest 229 264 15,900 -49 Descending Minneapolis Center
09:03AM 44.4072 -97.9197 310° West 229 264 16,000 49 Climbing Minneapolis Center
09:04AM 44.4447 -97.9897 307° West 229 264 16,000  Level Minneapolis Center
09:05AM 44.5014 -98.0600 319° Northwest 226 260 16,000 -49 Level Minneapolis Center
09:06AM 44.5528 -98.1161 322° Northwest 227 261 15,900 -49 Descending Minneapolis Center
09:07AM 44.5992 -98.1772 317° Northwest 228 262 15,900  Level Minneapolis Center
09:08AM 44.6389 -98.2447 310° West 228 262 15,900  Level Minneapolis Center
09:09AM 44.6811 -98.3092 313° West 228 262 15,900 49 Level Minneapolis Center
09:10AM 44.7283 -98.3656 320° Northwest 226 260 16,000 49 Climbing Minneapolis Center
09:11AM 44.7819 -98.4264 321° Northwest 226 260 16,000  Level Minneapolis Center
09:12AM 44.8233 -98.4928 311° West 226 260 16,000  Level Minneapolis Center
09:13AM 44.8583 -98.5656 304° West 226 260 16,000  Level Minneapolis Center
09:14AM 44.9036 -98.6258 317° Northwest 224 258 16,000  Level Minneapolis Center
09:15AM 44.9525 -98.6844 320° Northwest 226 260 16,000 49 Level Minneapolis Center
09:16AM 44.9939 -98.7522 311° West 226 260 16,100 -49 Climbing Minneapolis Center
09:17AM 45.0419 -98.8119 319° Northwest 227 261 15,900 -49 Descending Minneapolis Center
09:18AM 45.0922 -98.8683 322° Northwest 227 261 16,000 49 Climbing Minneapolis Center
09:20AM 45.1394 -98.9303 317° Northwest 230 265 16,000  Level Minneapolis Center
09:21AM 45.1956 -99.0044 317° Northwest 230 265 16,000  Level Minneapolis Center
09:22AM 45.2408 -99.0678 315° West 230 265 16,000  Level Minneapolis Center
09:23AM 45.2875 -99.1308 316° Northwest 230 265 16,000  Level Minneapolis Center
09:24AM 45.3306 -99.1992 312° West 230 265 16,000  Level Minneapolis Center
09:25AM 45.3703 -99.2706 308° West 231 266 16,000  Level Minneapolis Center
09:26AM 45.4181 -99.3317 318° Northwest 231 266 16,000  Level Minneapolis Center
09:27AM 45.4625 -99.3969 314° West 231 266 16,000  Level Minneapolis Center
09:28AM 45.5011 -99.4683 308° West 231 266 16,000  Level Minneapolis Center
09:29AM 45.5458 -99.5328 315° West 231 266 16,000  Level Minneapolis Center
09:30AM 45.5981 -99.6128 313° West 231 266 16,000  Level Minneapolis Center
09:31AM 45.6428 -99.6764 315° West 230 265 16,000  Level Minneapolis Center
09:32AM 45.6897 -99.7378 318° Northwest 230 265 16,000 49 Level Minneapolis Center
09:33AM 45.7375 -99.7989 318° Northwest 231 266 16,100  Climbing Minneapolis Center
09:34AM 45.7725 -99.8706 305° West 226 260 16,000  Descending Minneapolis Center
09:35AM 45.8117 -99.9422 308° West 226 260 16,100 49 Climbing Minneapolis Center
09:36AM 45.8556 -100.0069 314° West 226 260 16,100  Level Minneapolis Center
09:37AM 45.9022 -100.0686 317° Northwest 227 261 16,100 -49 Level Minneapolis Center
09:38AM 45.9444 -100.1383 311° West 227 261 16,000 -49 Descending Minneapolis Center
09:39AM 45.9961 -100.2183 313° West 227 261 16,000  Level Minneapolis Center
09:40AM 46.0397 -100.2831 314° West 227 261 16,000  Level Minneapolis Center
09:41AM 46.0867 -100.3447 318° Northwest 227 261 16,000  Level Minneapolis Center
09:42AM 46.1364 -100.4036 321° Northwest 228 262 16,000  Level Minneapolis Center
09:43AM 46.1856 -100.4619 321° Northwest 228 262 16,000  Level Minneapolis Center
09:44AM 46.2347 -100.5217 320° Northwest 228 262 16,000 49 Level Minneapolis Center
09:45AM 46.2819 -100.5833 318° Northwest 228 262 16,100 49 Climbing Minneapolis Center
09:46AM 46.3197 -100.6536 308° West 226 260 16,100  Level Minneapolis Center
09:47AM 46.3547 -100.7292 304° West 226 260 16,100 -49 Level Minneapolis Center
09:48AM 46.3994 -100.7936 315° West 226 260 16,000  Descending Minneapolis Center
09:49AM 46.4544 -100.8689 317° Northwest 226 260 16,100 49 Climbing Minneapolis Center
09:50AM 46.5000 -100.9328 316° Northwest 227 261 16,100 -49 Level Minneapolis Center
09:51AM 46.5478 -100.9914 320° Northwest 227 261 16,000 -49 Descending Minneapolis Center
09:52AM 46.5889 -101.0608 311° West 227 261 16,000 49 Level Minneapolis Center
09:53AM 46.6286 -101.1311 309° West 227 261 16,100 49 Climbing Minneapolis Center
09:54AM 46.6706 -101.1986 312° West 227 261 16,100  Level Minneapolis Center
09:55AM 46.7119 -101.2644 313° West 226 260 16,100 -49 Level Minneapolis Center
09:56AM 46.7553 -101.3322 313° West 227 261 16,000  Descending Minneapolis Center
09:57AM 46.8097 -101.3956 321° Northwest 227 261 16,100 49 Climbing Minneapolis Center
09:58AM 46.8414 -101.4617 305° West 225 259 16,100 -49 Level Minneapolis Center
09:59AM 46.8867 -101.5472 308° West 225 259 16,000  Descending Minneapolis Center
10:00AM 46.9256 -101.6072 314° West 224 258 16,100 -49 Climbing Minneapolis Center
10:01AM 46.9725 -101.6769 315° West 224 258 15,900 -148 Descending Minneapolis Center
10:02AM 47.0164 -101.7300 321° Northwest 224 258 15,800  Descending Minneapolis Center
10:03AM 47.0619 -101.7928 317° Northwest 224 258 15,900  Climbing Minneapolis Center
10:04AM 47.1103 -101.8744 311° West 224 258 15,800  Descending Minneapolis Center
10:05AM 47.1511 -101.9433 311° West 224 258 15,900 49 Climbing Minneapolis Center
10:06AM 47.1928 -102.0122 312° West 224 258 15,900  Level Minneapolis Center
10:07AM 47.2314 -102.0803 310° West 222 255 15,900  Level Minneapolis Center
10:08AM 47.2772 -102.1456 316° Northwest 223 257 15,900 -49 Level Minneapolis Center
10:09AM 47.3228 -102.2089 317° Northwest 225 259 15,800  Descending Minneapolis Center
10:10AM 47.3608 -102.2783 309° West 224 258 15,900 98 Climbing Minneapolis Center
10:12AM 47.3961 -102.3511 306° West 223 257 16,000  Climbing Minneapolis Center
10:13AM 47.4433 -102.4111 319° Northwest 222 255 15,900  Descending Minneapolis Center
10:14AM 47.5044 -102.4758 324° Northwest 222 255 16,000 -246 Climbing Minneapolis Center
10:15AM 47.5575 -102.5267 327° Northwest 222 255 15,400 -732 Descending Minneapolis Center
10:16AM 47.6050 -102.6006 314° West 238 274 14,500 -927 Descending Minneapolis Center
10:17AM 47.6392 -102.6931 299° West 250 288 13,500 -934 Descending Minneapolis Center
10:18AM 47.6800 -102.7781 306° West 251 289 12,600 -878 Descending Minneapolis Center
10:19AM 47.7258 -102.8650 308° West 258 297 11,700 -927 Descending Minneapolis Center
10:20AM 47.7719 -102.9567 307° West 268 308 10,700 -780 Descending Minneapolis Center
10:21AM 47.8203 -103.0467 309° West 274 315 10,100 -585 Descending Minneapolis Center
10:22AM 47.8878 -103.1381 318° Northwest 275 316 9,500 -667 Descending Minneapolis Center
10:22AM 47.9208 -103.1822 318° Northwest 276 318 9,000 -788 Descending Salt Lake Center
10:23AM 47.9692 -103.2678 310° West 276 318 8,200 -787 Descending Salt Lake Center

Login

Don't have an account? Register now (free) for customized features, flight alerts, and more!